BKP131 VTBS-VTSM
Flight info
| Callsign | BKP131 |
|---|---|
| Flight time | 0h 44m |
| Altitude | 36000 |
| Route | KASNI1J KASNI M757 MABKO W33 UPNEP |
| Aircraft | A319/M-SDE3FGHIRWY/LB1 |
Departure
| Time | 2026-04-10 21:56 |
|---|---|
| Airport | Suvarnabhumi Airport (VTBS) |
Arrival
| Time | 2026-04-10 22:41 |
|---|---|
| Airport | Samui International Airport (VTSM) |
| Time | Latitude | Longitude | Altitude | Speed | Heading |
|---|---|---|---|---|---|
| 2026-04-10 21:34 | 13.69377 | 100.75564 | 13 ft | 0 kts | 284° |
| 2026-04-10 21:47 | 13.69374 | 100.75575 | 14 ft | 3 kts | 285° |
| 2026-04-10 21:48 | 13.69369 | 100.75595 | 15 ft | 3 kts | 288° |
| 2026-04-10 21:48 | 13.69362 | 100.75615 | 15 ft | 3 kts | 292° |
| 2026-04-10 21:48 | 13.69354 | 100.75634 | 16 ft | 3 kts | 302° |
| 2026-04-10 21:48 | 13.69342 | 100.75649 | 13 ft | 3 kts | 329° |
| 2026-04-10 21:49 | 13.69329 | 100.75654 | 14 ft | 1 kts | 13° |
| 2026-04-10 21:49 | 13.69323 | 100.75652 | 14 ft | 0 kts | 14° |
| 2026-04-10 21:51 | 13.69327 | 100.75653 | 14 ft | 2 kts | 14° |
| 2026-04-10 21:51 | 13.69351 | 100.75660 | 13 ft | 5 kts | 14° |
| 2026-04-10 21:51 | 13.69399 | 100.75673 | 15 ft | 9 kts | 14° |
| 2026-04-10 21:52 | 13.69465 | 100.75690 | 13 ft | 11 kts | 14° |
| 2026-04-10 21:52 | 13.69532 | 100.75716 | 15 ft | 11 kts | 41° |
| 2026-04-10 21:52 | 13.69537 | 100.75793 | 13 ft | 13 kts | 104° |
| 2026-04-10 21:52 | 13.69513 | 100.75889 | 13 ft | 15 kts | 104° |
| 2026-04-10 21:53 | 13.69475 | 100.75977 | 13 ft | 11 kts | 144° |
| 2026-04-10 21:53 | 13.69394 | 100.75972 | 13 ft | 13 kts | 195° |
| 2026-04-10 21:53 | 13.69310 | 100.75949 | 13 ft | 11 kts | 194° |
| 2026-04-10 21:53 | 13.69241 | 100.75938 | 13 ft | 9 kts | 169° |
| 2026-04-10 21:54 | 13.69201 | 100.75989 | 12 ft | 11 kts | 104° |
| 2026-04-10 21:54 | 13.69163 | 100.76068 | 12 ft | 14 kts | 135° |
| 2026-04-10 21:54 | 13.69082 | 100.76080 | 12 ft | 9 kts | 193° |
| 2026-04-10 21:54 | 13.69060 | 100.76075 | 13 ft | 0 kts | 194° |
| 2026-04-10 21:55 | 13.69051 | 100.76072 | 14 ft | 2 kts | 194° |
| 2026-04-10 21:55 | 13.69044 | 100.76070 | 15 ft | 0 kts | 194° |
| 2026-04-10 21:55 | 13.69037 | 100.76069 | 14 ft | 2 kts | 194° |
| 2026-04-10 21:55 | 13.68933 | 100.76042 | 15 ft | 41 kts | 194° |
| 2026-04-10 21:56 | 13.68451 | 100.75915 | 15 ft | 101 kts | 194° |
| 2026-04-10 21:56 | 13.67585 | 100.75688 | 12 ft | 154 kts | 194° |
| 2026-04-10 21:56 | 13.66503 | 100.75400 | 538 ft | 161 kts | 194° |
| 2026-04-10 21:56 | 13.65406 | 100.75173 | 1202 ft | 163 kts | 182° |
| 2026-04-10 21:57 | 13.64263 | 100.75190 | 1869 ft | 167 kts | 180° |
| 2026-04-10 21:57 | 13.63033 | 100.75223 | 2240 ft | 188 kts | 181° |
| 2026-04-10 21:57 | 13.61630 | 100.75242 | 2586 ft | 213 kts | 182° |
| 2026-04-10 21:57 | 13.60111 | 100.75320 | 3301 ft | 226 kts | 174° |
| 2026-04-10 21:58 | 13.58494 | 100.75641 | 3860 ft | 248 kts | 169° |
| 2026-04-10 21:58 | 13.56787 | 100.76142 | 4633 ft | 260 kts | 165° |
| 2026-04-10 21:58 | 13.55046 | 100.76713 | 5506 ft | 266 kts | 163° |
| 2026-04-10 21:58 | 13.53249 | 100.77294 | 6338 ft | 275 kts | 164° |
| 2026-04-10 21:59 | 13.51399 | 100.77874 | 7150 ft | 281 kts | 164° |
| 2026-04-10 21:59 | 13.49508 | 100.78444 | 8014 ft | 285 kts | 165° |
| 2026-04-10 21:59 | 13.47589 | 100.78997 | 8890 ft | 289 kts | 166° |
| 2026-04-10 21:59 | 13.45630 | 100.79551 | 9657 ft | 295 kts | 166° |
| 2026-04-10 22:00 | 13.43647 | 100.80110 | 9923 ft | 297 kts | 166° |
| 2026-04-10 22:00 | 13.41598 | 100.80688 | 10249 ft | 316 kts | 166° |
| 2026-04-10 22:00 | 13.39421 | 100.81284 | 10689 ft | 329 kts | 169° |
| 2026-04-10 22:00 | 13.37128 | 100.81528 | 11321 ft | 334 kts | 181° |
| 2026-04-10 22:01 | 13.34790 | 100.81521 | 12003 ft | 338 kts | 181° |
| 2026-04-10 22:01 | 13.32417 | 100.81518 | 12682 ft | 343 kts | 181° |
| 2026-04-10 22:01 | 13.30024 | 100.81377 | 13335 ft | 347 kts | 191° |
| 2026-04-10 22:01 | 13.27694 | 100.80722 | 13949 ft | 349 kts | 203° |
| 2026-04-10 22:02 | 13.25544 | 100.79558 | 14535 ft | 351 kts | 214° |
| 2026-04-10 22:02 | 13.23490 | 100.78178 | 15139 ft | 354 kts | 214° |
| 2026-04-10 22:02 | 13.21417 | 100.76784 | 15734 ft | 358 kts | 214° |
| 2026-04-10 22:02 | 13.19326 | 100.75380 | 16331 ft | 361 kts | 214° |
| 2026-04-10 22:03 | 13.17215 | 100.73963 | 16910 ft | 365 kts | 213° |
| 2026-04-10 22:03 | 13.15081 | 100.72531 | 17490 ft | 368 kts | 213° |
| 2026-04-10 22:03 | 13.12921 | 100.71086 | 18076 ft | 372 kts | 213° |
| 2026-04-10 22:03 | 13.10736 | 100.69641 | 18586 ft | 376 kts | 211° |
| 2026-04-10 22:04 | 13.08371 | 100.68494 | 19101 ft | 378 kts | 199° |
| 2026-04-10 22:04 | 13.05806 | 100.67854 | 19624 ft | 381 kts | 188° |
| 2026-04-10 22:04 | 13.03149 | 100.67699 | 20129 ft | 384 kts | 181° |
| 2026-04-10 22:04 | 13.00469 | 100.67635 | 20663 ft | 386 kts | 181° |
| 2026-04-10 22:05 | 12.97770 | 100.67568 | 21179 ft | 389 kts | 181° |
| 2026-04-10 22:05 | 12.95053 | 100.67498 | 21688 ft | 392 kts | 181° |
| 2026-04-10 22:05 | 12.92315 | 100.67425 | 22181 ft | 395 kts | 182° |
| 2026-04-10 22:05 | 12.89556 | 100.67351 | 22688 ft | 398 kts | 182° |
| 2026-04-10 22:06 | 12.86775 | 100.67276 | 23179 ft | 401 kts | 181° |
| 2026-04-10 22:06 | 12.83975 | 100.67201 | 23630 ft | 404 kts | 181° |
| 2026-04-10 22:06 | 12.81155 | 100.67125 | 24043 ft | 407 kts | 181° |
| 2026-04-10 22:06 | 12.78313 | 100.67048 | 24441 ft | 410 kts | 181° |
| 2026-04-10 22:07 | 12.75452 | 100.66973 | 24821 ft | 413 kts | 181° |
| 2026-04-10 22:07 | 12.72566 | 100.66898 | 25212 ft | 416 kts | 181° |
| 2026-04-10 22:07 | 12.69661 | 100.66823 | 25585 ft | 419 kts | 181° |
| 2026-04-10 22:08 | 12.63796 | 100.66670 | 26341 ft | 425 kts | 181° |
| 2026-04-10 22:08 | 12.60829 | 100.66593 | 26712 ft | 427 kts | 180° |
| 2026-04-10 22:08 | 12.57853 | 100.66517 | 26858 ft | 428 kts | 180° |
| 2026-04-10 22:08 | 12.54875 | 100.66441 | 26892 ft | 428 kts | 180° |
| 2026-04-10 22:09 | 12.51892 | 100.66365 | 26889 ft | 429 kts | 179° |
| 2026-04-10 22:09 | 12.48906 | 100.66289 | 26890 ft | 429 kts | 180° |
| 2026-04-10 22:09 | 12.45926 | 100.66210 | 26889 ft | 428 kts | 180° |
| 2026-04-10 22:09 | 12.42946 | 100.66131 | 26889 ft | 429 kts | 180° |
| 2026-04-10 22:10 | 12.39964 | 100.66053 | 26889 ft | 428 kts | 180° |
| 2026-04-10 22:10 | 12.36987 | 100.65976 | 26890 ft | 428 kts | 180° |
| 2026-04-10 22:10 | 12.34009 | 100.65899 | 26890 ft | 428 kts | 179° |
| 2026-04-10 22:10 | 12.31030 | 100.65822 | 26889 ft | 428 kts | 180° |
| 2026-04-10 22:11 | 12.28052 | 100.65744 | 26889 ft | 428 kts | 179° |
| 2026-04-10 22:11 | 12.25070 | 100.65667 | 26888 ft | 429 kts | 180° |
| 2026-04-10 22:11 | 12.22090 | 100.65591 | 26888 ft | 429 kts | 180° |
| 2026-04-10 22:11 | 12.19109 | 100.65513 | 26892 ft | 428 kts | 179° |
| 2026-04-10 22:12 | 12.16134 | 100.65434 | 26888 ft | 428 kts | 180° |
| 2026-04-10 22:12 | 12.13194 | 100.65356 | 26888 ft | 428 kts | 180° |
| 2026-04-10 22:12 | 12.10220 | 100.65277 | 26885 ft | 428 kts | 180° |
| 2026-04-10 22:12 | 12.07246 | 100.65198 | 26885 ft | 428 kts | 180° |
| 2026-04-10 22:13 | 12.04268 | 100.65118 | 26884 ft | 428 kts | 180° |
| 2026-04-10 22:13 | 12.01290 | 100.65044 | 26883 ft | 428 kts | 179° |
| 2026-04-10 22:13 | 11.98312 | 100.64972 | 26888 ft | 428 kts | 179° |
| 2026-04-10 22:13 | 11.95332 | 100.64899 | 26888 ft | 428 kts | 180° |
| 2026-04-10 22:14 | 11.92355 | 100.64824 | 26890 ft | 428 kts | 179° |
| 2026-04-10 22:14 | 11.89379 | 100.64748 | 26889 ft | 428 kts | 180° |
| 2026-04-10 22:14 | 11.86401 | 100.64671 | 26890 ft | 428 kts | 179° |
| 2026-04-10 22:14 | 11.83427 | 100.64595 | 26892 ft | 428 kts | 179° |
| 2026-04-10 22:15 | 11.80449 | 100.64520 | 26888 ft | 428 kts | 179° |
| 2026-04-10 22:15 | 11.77467 | 100.64446 | 26890 ft | 429 kts | 179° |
| 2026-04-10 22:15 | 11.74482 | 100.64372 | 26891 ft | 429 kts | 179° |
| 2026-04-10 22:15 | 11.71499 | 100.64298 | 26891 ft | 429 kts | 179° |
| 2026-04-10 22:16 | 11.68517 | 100.64224 | 26889 ft | 429 kts | 179° |
| 2026-04-10 22:16 | 11.65533 | 100.64147 | 26887 ft | 429 kts | 179° |
| 2026-04-10 22:16 | 11.62550 | 100.64069 | 26888 ft | 429 kts | 180° |
| 2026-04-10 22:16 | 11.59567 | 100.63993 | 26887 ft | 429 kts | 179° |
| 2026-04-10 22:17 | 11.56582 | 100.63917 | 26888 ft | 429 kts | 179° |
| 2026-04-10 22:17 | 11.53601 | 100.63841 | 26888 ft | 429 kts | 179° |
| 2026-04-10 22:17 | 11.50617 | 100.63766 | 26887 ft | 429 kts | 179° |
| 2026-04-10 22:17 | 11.47637 | 100.63694 | 26887 ft | 429 kts | 179° |
| 2026-04-10 22:18 | 11.44653 | 100.63622 | 26890 ft | 429 kts | 179° |
| 2026-04-10 22:18 | 11.41670 | 100.63548 | 26890 ft | 429 kts | 179° |
| 2026-04-10 22:18 | 11.38688 | 100.63472 | 26893 ft | 429 kts | 179° |
| 2026-04-10 22:18 | 11.35706 | 100.63394 | 26893 ft | 429 kts | 180° |
| 2026-04-10 22:19 | 11.32723 | 100.63312 | 26892 ft | 429 kts | 179° |
| 2026-04-10 22:19 | 11.29741 | 100.63233 | 26893 ft | 429 kts | 180° |
| 2026-04-10 22:19 | 11.26761 | 100.63156 | 26892 ft | 429 kts | 179° |
| 2026-04-10 22:19 | 11.23773 | 100.63083 | 26893 ft | 429 kts | 179° |
| 2026-04-10 22:20 | 11.20789 | 100.63012 | 26890 ft | 429 kts | 179° |
| 2026-04-10 22:20 | 11.17812 | 100.62940 | 26889 ft | 429 kts | 179° |
| 2026-04-10 22:20 | 11.14827 | 100.62865 | 26890 ft | 429 kts | 179° |
| 2026-04-10 22:20 | 11.11839 | 100.62791 | 26897 ft | 429 kts | 179° |
| 2026-04-10 22:21 | 11.08856 | 100.62716 | 26890 ft | 429 kts | 179° |
| 2026-04-10 22:21 | 11.05873 | 100.62642 | 26890 ft | 429 kts | 179° |
| 2026-04-10 22:21 | 11.02882 | 100.62566 | 26890 ft | 429 kts | 179° |
| 2026-04-10 22:21 | 10.99897 | 100.62489 | 26890 ft | 429 kts | 179° |
| 2026-04-10 22:22 | 10.96910 | 100.62414 | 26893 ft | 429 kts | 179° |
| 2026-04-10 22:22 | 10.93924 | 100.62341 | 26892 ft | 429 kts | 179° |
| 2026-04-10 22:22 | 10.90956 | 100.62264 | 26748 ft | 423 kts | 180° |
| 2026-04-10 22:22 | 10.88046 | 100.62185 | 26509 ft | 414 kts | 180° |
| 2026-04-10 22:23 | 10.85195 | 100.62110 | 26271 ft | 406 kts | 179° |
| 2026-04-10 22:23 | 10.82403 | 100.62039 | 26032 ft | 398 kts | 179° |
| 2026-04-10 22:23 | 10.79661 | 100.61973 | 25799 ft | 390 kts | 179° |
| 2026-04-10 22:23 | 10.76962 | 100.61908 | 25570 ft | 385 kts | 179° |
| 2026-04-10 22:24 | 10.74300 | 100.61842 | 25355 ft | 382 kts | 179° |
| 2026-04-10 22:24 | 10.71650 | 100.61776 | 25119 ft | 380 kts | 179° |
| 2026-04-10 22:24 | 10.69053 | 100.61713 | 24896 ft | 378 kts | 179° |
| 2026-04-10 22:24 | 10.66436 | 100.61499 | 24631 ft | 377 kts | 191° |
| 2026-04-10 22:25 | 10.63990 | 100.60577 | 24282 ft | 376 kts | 206° |
| 2026-04-10 22:25 | 10.61682 | 100.59340 | 23880 ft | 374 kts | 206° |
| 2026-04-10 22:25 | 10.59395 | 100.58093 | 23497 ft | 372 kts | 206° |
| 2026-04-10 22:25 | 10.57121 | 100.56846 | 23030 ft | 370 kts | 207° |
| 2026-04-10 22:26 | 10.54868 | 100.55610 | 22606 ft | 367 kts | 207° |
| 2026-04-10 22:26 | 10.52630 | 100.54390 | 22181 ft | 364 kts | 207° |
| 2026-04-10 22:26 | 10.50407 | 100.53183 | 21758 ft | 361 kts | 206° |
| 2026-04-10 22:26 | 10.48199 | 100.51986 | 21334 ft | 358 kts | 206° |
| 2026-04-10 22:27 | 10.46014 | 100.50800 | 20816 ft | 355 kts | 206° |
| 2026-04-10 22:27 | 10.43845 | 100.49620 | 20330 ft | 352 kts | 206° |
| 2026-04-10 22:27 | 10.41692 | 100.48451 | 19842 ft | 349 kts | 207° |
| 2026-04-10 22:27 | 10.39564 | 100.47296 | 19373 ft | 346 kts | 206° |
| 2026-04-10 22:28 | 10.37444 | 100.46144 | 18885 ft | 344 kts | 207° |
| 2026-04-10 22:28 | 10.35347 | 100.45004 | 18421 ft | 342 kts | 206° |
| 2026-04-10 22:28 | 10.33932 | 100.44235 | 18096 ft | 340 kts | 206° |
| 2026-04-10 22:28 | 10.31855 | 100.43104 | 17579 ft | 337 kts | 206° |
| 2026-04-10 22:29 | 10.29793 | 100.41983 | 17074 ft | 335 kts | 207° |
| 2026-04-10 22:29 | 10.27752 | 100.40875 | 16592 ft | 331 kts | 207° |
| 2026-04-10 22:29 | 10.25724 | 100.39776 | 16095 ft | 329 kts | 207° |
| 2026-04-10 22:29 | 10.23710 | 100.38686 | 15617 ft | 327 kts | 207° |
| 2026-04-10 22:30 | 10.21706 | 100.37602 | 15149 ft | 325 kts | 207° |
| 2026-04-10 22:30 | 10.19719 | 100.36527 | 14704 ft | 322 kts | 208° |
| 2026-04-10 22:30 | 10.17746 | 100.35461 | 14247 ft | 320 kts | 208° |
| 2026-04-10 22:30 | 10.15789 | 100.34404 | 13820 ft | 318 kts | 208° |
| 2026-04-10 22:31 | 10.13844 | 100.33353 | 13346 ft | 316 kts | 208° |
| 2026-04-10 22:31 | 10.11914 | 100.32308 | 12869 ft | 313 kts | 208° |
| 2026-04-10 22:31 | 10.09998 | 100.31270 | 12391 ft | 311 kts | 208° |
| 2026-04-10 22:31 | 10.08094 | 100.30237 | 11948 ft | 309 kts | 208° |
| 2026-04-10 22:32 | 10.06210 | 100.29215 | 11498 ft | 306 kts | 208° |
| 2026-04-10 22:32 | 10.04365 | 100.28214 | 11073 ft | 304 kts | 208° |
| 2026-04-10 22:32 | 10.02508 | 100.27209 | 10645 ft | 301 kts | 208° |
| 2026-04-10 22:32 | 10.00669 | 100.26213 | 10221 ft | 299 kts | 208° |
| 2026-04-10 22:33 | 9.98845 | 100.25227 | 9823 ft | 296 kts | 208° |
| 2026-04-10 22:33 | 9.97032 | 100.24248 | 9363 ft | 294 kts | 208° |
| 2026-04-10 22:33 | 9.95233 | 100.23274 | 8910 ft | 292 kts | 207° |
| 2026-04-10 22:33 | 9.93443 | 100.22305 | 8466 ft | 290 kts | 207° |
| 2026-04-10 22:34 | 9.91672 | 100.21344 | 8025 ft | 288 kts | 207° |
| 2026-04-10 22:34 | 9.89907 | 100.20391 | 7596 ft | 286 kts | 206° |
| 2026-04-10 22:34 | 9.88156 | 100.19446 | 7158 ft | 285 kts | 207° |
| 2026-04-10 22:34 | 9.86411 | 100.18502 | 6733 ft | 283 kts | 206° |
| 2026-04-10 22:35 | 9.84677 | 100.17564 | 6326 ft | 281 kts | 206° |
| 2026-04-10 22:35 | 9.82955 | 100.16632 | 5891 ft | 280 kts | 206° |
| 2026-04-10 22:35 | 9.81245 | 100.15708 | 5457 ft | 278 kts | 206° |
| 2026-04-10 22:35 | 9.79549 | 100.14793 | 5037 ft | 276 kts | 207° |
| 2026-04-10 22:36 | 9.77858 | 100.13878 | 4628 ft | 274 kts | 208° |
| 2026-04-10 22:36 | 9.76184 | 100.12969 | 4208 ft | 272 kts | 208° |
| 2026-04-10 22:36 | 9.74529 | 100.12073 | 3814 ft | 269 kts | 209° |
| 2026-04-10 22:36 | 9.72914 | 100.11201 | 3662 ft | 255 kts | 210° |
| 2026-04-10 22:37 | 9.71388 | 100.10378 | 3524 ft | 241 kts | 210° |
| 2026-04-10 22:37 | 9.69935 | 100.09597 | 3182 ft | 233 kts | 209° |
| 2026-04-10 22:37 | 9.68517 | 100.08834 | 2736 ft | 230 kts | 210° |
| 2026-04-10 22:37 | 9.67113 | 100.08076 | 2239 ft | 227 kts | 210° |
| 2026-04-10 22:38 | 9.65730 | 100.07329 | 1723 ft | 224 kts | 209° |
| 2026-04-10 22:38 | 9.64412 | 100.06620 | 1538 ft | 201 kts | 209° |
| 2026-04-10 22:38 | 9.63242 | 100.05990 | 1488 ft | 179 kts | 209° |
| 2026-04-10 22:38 | 9.62093 | 100.05612 | 1403 ft | 164 kts | 189° |
| 2026-04-10 22:39 | 9.61045 | 100.05652 | 1174 ft | 144 kts | 175° |
| 2026-04-10 22:39 | 9.60074 | 100.05749 | 979 ft | 135 kts | 175° |
| 2026-04-10 22:39 | 9.59169 | 100.05836 | 805 ft | 130 kts | 177° |
| 2026-04-10 22:39 | 9.58274 | 100.05920 | 624 ft | 129 kts | 175° |
| 2026-04-10 22:40 | 9.57383 | 100.06005 | 443 ft | 128 kts | 175° |
| 2026-04-10 22:40 | 9.56496 | 100.06092 | 273 ft | 128 kts | 175° |
| 2026-04-10 22:40 | 9.55609 | 100.06167 | 100 ft | 128 kts | 174° |
| 2026-04-10 22:40 | 9.54787 | 100.06248 | 53 ft | 100 kts | 174° |
| 2026-04-10 22:41 | 9.54246 | 100.06299 | 51 ft | 46 kts | 174° |
| 2026-04-10 22:41 | 9.54130 | 100.06310 | 53 ft | 13 kts | 175° |
| 2026-04-10 22:41 | 9.53990 | 100.06321 | 53 ft | 21 kts | 179° |
| 2026-04-10 22:41 | 9.53871 | 100.06308 | 53 ft | 8 kts | 172° |
| 2026-04-10 22:42 | 9.53884 | 100.06335 | 53 ft | 8 kts | 355° |
| 2026-04-10 22:42 | 9.53967 | 100.06327 | 51 ft | 16 kts | 354° |
| 2026-04-10 22:42 | 9.54158 | 100.06308 | 52 ft | 42 kts | 354° |
| 2026-04-10 22:42 | 9.54507 | 100.06272 | 51 ft | 49 kts | 354° |
| 2026-04-10 22:43 | 9.54873 | 100.06236 | 53 ft | 54 kts | 355° |
| 2026-04-10 22:43 | 9.55073 | 100.06219 | 53 ft | 12 kts | 356° |
| 2026-04-10 22:43 | 9.55122 | 100.06271 | 53 ft | 10 kts | 92° |
| 2026-04-10 22:43 | 9.55119 | 100.06288 | 53 ft | 3 kts | 100° |
| 2026-04-10 22:44 | 9.55123 | 100.06298 | 53 ft | 0 kts | 56° |
| 2026-04-10 22:44 | 9.55123 | 100.06299 | 53 ft | 0 kts | 60° |
| 2026-04-10 22:44 | 9.55118 | 100.06303 | 53 ft | 2 kts | 130° |
| 2026-04-10 22:45 | 9.55103 | 100.06304 | 53 ft | 1 kts | 175° |
| 2026-04-10 22:45 | 9.55100 | 100.06305 | 53 ft | 0 kts | 175° |
| 2026-04-10 22:45 | 9.55096 | 100.06305 | 53 ft | 3 kts | 178° |
| 2026-04-10 22:46 | 9.55065 | 100.06306 | 51 ft | 5 kts | 178° |
| 2026-04-10 22:46 | 9.55039 | 100.06314 | 53 ft | 2 kts | 122° |
| 2026-04-10 22:46 | 9.55042 | 100.06333 | 53 ft | 2 kts | 78° |
| 2026-04-10 22:46 | 9.55043 | 100.06345 | 53 ft | 1 kts | 84° |
| 2026-04-10 22:47 | 9.55043 | 100.06349 | 53 ft | 0 kts | 84° |